Time,TemperatureF,DewpointF,PressureIn,WindDirection,WindDirectionDegrees,WindSpeedMPH,WindSpeedGustMPH,Humidity,HourlyPrecipIn,Conditions,Clouds,dailyrainin,SoftwareType,DateUTC
2013-01-28 00:10:00,13.9,-4.0,30.37,NNE,23,0.0,2.0,45,0.00,,,0.00,weatherlink.com 1.10,2013-01-28 05:10:00,
2013-01-28 00:25:00,13.7,-4.0,30.38,NNE,26,0.0,4.0,46,0.00,,,0.00,weatherlink.com 1.10,2013-01-28 05:25:00,
2013-01-28 00:40:00,13.3,-3.0,30.37,NNE,28,0.0,2.0,48,0.00,,,0.00,weatherlink.com 1.10,2013-01-28 05:40:00,
2013-01-28 00:55:00,11.7,-3.0,30.37,NNE,28,0.0,2.0,53,0.00,,,0.00,weatherlink.com 1.10,2013-01-28 05:55:00,
2013-01-28 01:10:00,11.4,-2.0,30.37,NE,37,0.0,2.0,56,0.00,,,0.00,weatherlink.com 1.10,2013-01-28 06:10:00,
2013-01-28 01:25:00,10.2,-2.0,30.37,NE,37,0.0,1.0,59,0.00,,,0.00,weatherlink.com 1.10,2013-01-28 06:25:00,
2013-01-28 01:40:00,9.7,0.0,30.38,NE,37,0.0,1.0,64,0.00,,,0.00,weatherlink.com 1.10,2013-01-28 06:40:00,
2013-01-28 01:55:00,9.5,-1.0,30.39,NE,37,0.0,1.0,62,0.00,,,0.00,weatherlink.com 1.10,2013-01-28 06:55:00,
2013-01-28 02:10:00,8.9,-1.0,30.39,NE,37,0.0,2.0,65,0.00,,,0.00,weatherlink.com 1.10,2013-01-28 07:10:00,
2013-01-28 02:25:00,10.4,-1.0,30.38,North,360,0.0,2.0,61,0.00,,,0.00,weatherlink.com 1.10,2013-01-28 07:25:00,
2013-01-28 02:40:00,13.3,-2.0,30.38,NNE,25,0.0,4.0,50,0.00,,,0.00,weatherlink.com 1.10,2013-01-28 07:40:00,
2013-01-28 02:55:00,13.6,-3.0,30.36,NW,322,2.0,5.0,47,0.00,,,0.00,weatherlink.com 1.10,2013-01-28 07:55:00,
2013-01-28 03:10:00,13.1,-4.0,30.36,NNE,19,0.0,6.0,47,0.00,,,0.00,weatherlink.com 1.10,2013-01-28 08:10:00,
2013-01-28 03:25:00,12.8,-4.0,30.36,NE,42,0.0,1.0,47,0.00,,,0.00,weatherlink.com 1.10,2013-01-28 08:25:00,
2013-01-28 03:41:00,12.0,-3.0,30.36,NE,42,0.0,1.0,51,0.00,,,0.00,weatherlink.com 1.10,2013-01-28 08:41:00,
2013-01-28 03:56:00,10.9,-3.0,30.36,NE,41,0.0,1.0,55,0.00,,,0.00,weatherlink.com 1.10,2013-01-28 08:56:00,
2013-01-28 04:11:00,9.6,0.0,30.36,NE,42,0.0,1.0,64,0.00,,,0.00,weatherlink.com 1.10,2013-01-28 09:11:00,
2013-01-28 04:26:00,8.8,-1.0,30.36,NE,42,0.0,1.0,65,0.00,,,0.00,weatherlink.com 1.10,2013-01-28 09:26:00,
2013-01-28 04:41:00,8.7,-1.0,30.35,NE,42,0.0,0.0,65,0.00,,,0.00,weatherlink.com 1.10,2013-01-28 09:41:00,
2013-01-28 04:56:00,8.6,-1.0,30.34,NE,42,0.0,1.0,65,0.00,,,0.00,weatherlink.com 1.10,2013-01-28 09:56:00,
2013-01-28 05:11:00,8.8,-2.0,30.34,NE,41,0.0,1.0,63,0.00,,,0.00,weatherlink.com 1.10,2013-01-28 10:11:00,
2013-01-28 05:26:00,11.4,-3.0,30.34,South,187,0.0,2.0,53,0.00,,,0.00,weatherlink.com 1.10,2013-01-28 10:26:00,
2013-01-28 05:41:00,11.7,-3.0,30.34,South,187,0.0,1.0,53,0.00,,,0.00,weatherlink.com 1.10,2013-01-28 10:41:00,
2013-01-28 05:56:00,13.1,-3.0,30.33,SSW,211,0.0,1.0,49,0.00,,,0.00,weatherlink.com 1.10,2013-01-28 10:56:00,
2013-01-28 06:11:00,13.4,-3.0,30.33,SSW,211,0.0,1.0,49,0.00,,,0.00,weatherlink.com 1.10,2013-01-28 11:11:00,
2013-01-28 06:26:00,12.8,-1.0,30.33,WSW,253,0.0,3.0,54,0.00,,,0.00,weatherlink.com 1.10,2013-01-28 11:26:00,
2013-01-28 06:41:00,11.8,-1.0,30.33,SW,236,0.0,2.0,57,0.00,,,0.00,weatherlink.com 1.10,2013-01-28 11:41:00,
2013-01-28 06:57:00,12.3,1.0,30.32,SW,236,0.0,1.0,62,0.00,,,0.00,weatherlink.com 1.10,2013-01-28 11:57:00,
2013-01-28 07:12:00,13.2,0.0,30.33,SW,236,0.0,2.0,56,0.00,,,0.00,weatherlink.com 1.10,2013-01-28 12:12:00,
2013-01-28 07:27:00,13.7,1.0,30.33,SW,236,0.0,1.0,56,0.00,,,0.00,weatherlink.com 1.10,2013-01-28 12:27:00,
2013-01-28 07:42:00,14.0,0.0,30.32,SW,236,0.0,1.0,53,0.00,,,0.00,weatherlink.com 1.10,2013-01-28 12:42:00,
2013-01-28 07:57:00,14.2,-1.0,30.33,SW,225,0.0,3.0,52,0.00,,,0.00,weatherlink.com 1.10,2013-01-28 12:57:00,
2013-01-28 08:12:00,14.5,0.0,30.32,SW,225,0.0,1.0,53,0.00,,,0.00,weatherlink.com 1.10,2013-01-28 13:12:00,
2013-01-28 08:27:00,15.0,1.0,30.32,SW,225,0.0,1.0,53,0.00,,,0.00,weatherlink.com 1.10,2013-01-28 13:27:00,
2013-01-28 08:43:00,15.4,2.0,30.32,SW,225,0.0,1.0,55,0.00,,,0.00,weatherlink.com 1.10,2013-01-28 13:43:00,
2013-01-28 08:58:00,16.1,2.0,30.31,SW,225,0.0,1.0,53,0.00,,,0.00,weatherlink.com 1.10,2013-01-28 13:58:00,
2013-01-28 09:13:00,17.1,2.0,30.32,SW,225,0.0,1.0,51,0.00,,,0.00,weatherlink.com 1.10,2013-01-28 14:13:00,
2013-01-28 09:28:00,18.1,2.0,30.31,SW,225,0.0,2.0,50,0.00,,,0.00,weatherlink.com 1.10,2013-01-28 14:28:00,
2013-01-28 09:43:00,19.4,3.0,30.30,SW,215,0.0,2.0,49,0.00,,,0.00,weatherlink.com 1.10,2013-01-28 14:43:00,
2013-01-28 10:13:00,20.5,4.0,30.31,SW,216,2.0,3.0,49,0.00,,,0.00,weatherlink.com 1.10,2013-01-28 15:13:00,
2013-01-28 10:28:00,21.0,4.0,30.30,SSW,199,0.0,2.0,49,0.00,,,0.00,weatherlink.com 1.10,2013-01-28 15:28:00,
2013-01-28 10:43:00,21.9,5.0,30.29,SSW,199,0.0,3.0,48,0.00,,,0.00,weatherlink.com 1.10,2013-01-28 15:43:00,
2013-01-28 10:59:00,22.6,3.0,30.28,SSW,196,0.0,1.0,42,0.00,,,0.00,weatherlink.com 1.10,2013-01-28 15:59:00,
2013-01-28 11:14:00,22.9,3.0,30.27,SSW,196,0.0,2.0,43,0.00,,,0.00,weatherlink.com 1.10,2013-01-28 16:14:00,
2013-01-28 11:29:00,23.3,4.0,30.26,SSW,196,1.0,1.0,43,0.00,,,0.00,weatherlink.com 1.10,2013-01-28 16:29:00,
2013-01-28 11:44:00,23.5,4.0,30.26,SSW,198,0.0,2.0,43,0.00,,,0.00,weatherlink.com 1.10,2013-01-28 16:44:00,
2013-01-28 11:59:00,23.9,3.0,30.24,SSW,198,0.0,1.0,41,0.00,,,0.00,weatherlink.com 1.10,2013-01-28 16:59:00,
2013-01-28 12:14:00,24.5,5.0,30.23,SSW,198,0.0,1.0,43,0.00,,,0.00,weatherlink.com 1.10,2013-01-28 17:14:00,
2013-01-28 12:29:00,24.4,7.0,30.23,SSW,196,2.0,3.0,47,0.00,,,0.00,weatherlink.com 1.10,2013-01-28 17:29:00,
2013-01-28 12:44:00,23.0,12.0,30.22,South,174,0.0,4.0,62,0.00,,,0.00,weatherlink.com 1.10,2013-01-28 17:44:00,
2013-01-28 12:59:00,22.4,14.0,30.20,South,173,0.0,1.0,70,0.00,,,0.00,weatherlink.com 1.10,2013-01-28 17:59:00,
2013-01-28 13:14:00,21.5,15.0,30.18,South,175,0.0,3.0,76,0.00,,,0.00,weatherlink.com 1.10,2013-01-28 18:14:00,
2013-01-28 13:29:00,21.2,16.0,30.17,South,174,0.0,3.0,80,0.00,,,0.00,weatherlink.com 1.10,2013-01-28 18:29:00,
2013-01-28 13:44:00,21.2,16.0,30.16,South,175,0.0,3.0,81,0.00,,,0.00,weatherlink.com 1.10,2013-01-28 18:44:00,
2013-01-28 13:59:00,21.5,17.0,30.15,South,175,0.0,1.0,81,0.00,,,0.00,weatherlink.com 1.10,2013-01-28 18:59:00,
2013-01-28 14:14:00,21.1,16.0,30.15,NNE,32,0.0,3.0,82,0.00,,,0.00,weatherlink.com 1.10,2013-01-28 19:14:00,
2013-01-28 14:30:00,20.7,16.0,30.14,NE,50,1.0,3.0,83,0.00,,,0.00,weatherlink.com 1.10,2013-01-28 19:30:00,
2013-01-28 14:45:00,20.3,17.0,30.13,NE,48,1.0,3.0,85,0.00,,,0.00,weatherlink.com 1.10,2013-01-28 19:45:00,
2013-01-28 15:00:00,20.2,17.0,30.13,NE,48,0.0,1.0,87,0.00,,,0.00,weatherlink.com 1.10,2013-01-28 20:00:00,
2013-01-28 15:15:00,20.1,17.0,30.12,NE,48,0.0,1.0,88,0.00,,,0.00,weatherlink.com 1.10,2013-01-28 20:15:00,
2013-01-28 15:30:00,20.2,17.0,30.12,NE,48,0.0,1.0,88,0.00,,,0.00,weatherlink.com 1.10,2013-01-28 20:30:00,
2013-01-28 15:45:00,20.3,17.0,30.11,NE,48,0.0,1.0,88,0.00,,,0.00,weatherlink.com 1.10,2013-01-28 20:45:00,
2013-01-28 16:00:00,20.5,18.0,30.10,NE,48,0.0,1.0,88,0.00,,,0.00,weatherlink.com 1.10,2013-01-28 21:00:00,
2013-01-28 16:15:00,20.5,18.0,30.10,NE,48,0.0,1.0,89,0.00,,,0.00,weatherlink.com 1.10,2013-01-28 21:15:00,
2013-01-28 16:30:00,20.4,18.0,30.10,NE,48,0.0,1.0,89,0.00,,,0.00,weatherlink.com 1.10,2013-01-28 21:30:00,
2013-01-28 16:44:00,20.4,18.0,30.09,NE,48,0.0,1.0,89,0.00,,,0.00,weatherlink.com 1.10,2013-01-28 21:44:00,
2013-01-28 17:00:00,20.4,18.0,30.08,NE,48,0.0,1.0,90,0.00,,,0.00,weatherlink.com 1.10,2013-01-28 22:00:00,
2013-01-28 17:15:00,20.4,18.0,30.07,NE,48,0.0,1.0,90,0.00,,,0.00,weatherlink.com 1.10,2013-01-28 22:15:00,
2013-01-28 17:30:00,20.4,18.0,30.08,NE,48,0.0,1.0,90,0.00,,,0.00,weatherlink.com 1.10,2013-01-28 22:30:00,
2013-01-28 17:45:00,20.4,18.0,30.06,NE,48,0.0,1.0,90,0.00,,,0.00,weatherlink.com 1.10,2013-01-28 22:45:00,
2013-01-28 18:00:00,20.3,18.0,30.07,NE,49,0.0,3.0,90,0.00,,,0.00,weatherlink.com 1.10,2013-01-28 23:00:00,
2013-01-28 18:15:00,20.1,17.0,30.06,NE,53,0.0,3.0,89,0.00,,,0.00,weatherlink.com 1.10,2013-01-28 23:15:00,
2013-01-28 18:30:00,20.0,17.0,30.06,NE,53,0.0,2.0,89,0.00,,,0.00,weatherlink.com 1.10,2013-01-28 23:30:00,
2013-01-28 18:45:00,19.9,18.0,30.07,NE,53,0.0,3.0,90,0.00,,,0.00,weatherlink.com 1.10,2013-01-28 23:45:00,
2013-01-28 19:00:00,19.8,17.0,30.06,NE,53,0.0,2.0,90,0.00,,,0.00,weatherlink.com 1.10,2013-01-29 00:00:00,
2013-01-28 19:15:00,19.8,17.0,30.05,NE,53,0.0,0.0,90,0.00,,,0.00,weatherlink.com 1.10,2013-01-29 00:15:00,
2013-01-28 19:30:00,19.7,17.0,30.05,NE,53,0.0,1.0,90,0.00,,,0.00,weatherlink.com 1.10,2013-01-29 00:30:00,
2013-01-28 19:45:00,19.7,18.0,30.04,NE,53,0.0,1.0,91,0.00,,,0.00,weatherlink.com 1.10,2013-01-29 00:45:00,
2013-01-28 20:01:00,19.7,18.0,30.04,NE,53,0.0,2.0,91,0.00,,,0.00,weatherlink.com 1.10,2013-01-29 01:01:00,
2013-01-28 20:16:00,19.7,18.0,30.02,NE,53,1.0,1.0,91,0.00,,,0.00,weatherlink.com 1.10,2013-01-29 01:16:00,
2013-01-28 20:31:00,19.8,18.0,30.02,NE,53,0.0,1.0,91,0.00,,,0.00,weatherlink.com 1.10,2013-01-29 01:31:00,
2013-01-28 20:46:00,20.0,18.0,30.02,NE,53,0.0,1.0,91,0.00,,,0.00,weatherlink.com 1.10,2013-01-29 01:46:00,
2013-01-28 21:01:00,20.2,18.0,30.01,NE,53,0.0,1.0,90,0.00,,,0.00,weatherlink.com 1.10,2013-01-29 02:01:00,
2013-01-28 21:16:00,20.3,18.0,30.01,NE,53,0.0,0.0,90,0.00,,,0.00,weatherlink.com 1.10,2013-01-29 02:16:00,
2013-01-28 21:46:00,20.5,18.0,29.99,NE,53,0.0,1.0,90,0.00,,,0.00,weatherlink.com 1.10,2013-01-29 02:46:00,
2013-01-28 22:01:00,20.4,18.0,29.99,NE,53,0.0,0.0,90,0.00,,,0.00,weatherlink.com 1.10,2013-01-29 03:01:00,
2013-01-28 22:16:00,20.5,18.0,29.99,NE,53,0.0,1.0,90,0.00,,,0.00,weatherlink.com 1.10,2013-01-29 03:16:00,
2013-01-28 22:31:00,20.5,18.0,29.99,NE,53,0.0,1.0,91,0.00,,,0.00,weatherlink.com 1.10,2013-01-29 03:31:00,
2013-01-28 22:46:00,20.4,18.0,29.99,NE,53,0.0,1.0,90,0.00,,,0.00,weatherlink.com 1.10,2013-01-29 03:46:00,
2013-01-28 23:01:00,20.4,18.0,29.99,NE,53,0.0,1.0,91,0.00,,,0.00,weatherlink.com 1.10,2013-01-29 04:01:00,
2013-01-28 23:16:00,20.4,18.0,29.98,NE,53,0.0,1.0,91,0.00,,,0.00,weatherlink.com 1.10,2013-01-29 04:16:00,
2013-01-28 23:32:00,20.4,18.0,29.99,NE,53,0.0,0.0,91,0.00,,,0.00,weatherlink.com 1.10,2013-01-29 04:32:00,
2013-01-28 23:47:00,20.4,18.0,29.99,NE,53,0.0,1.0,91,0.00,,,0.00,weatherlink.com 1.10,2013-01-29 04:47:00,